createdAt,value
2022-10-30T00:03:02.257Z,12.63
2022-10-30T00:18:08.115Z,10.67
2022-10-30T00:33:12.452Z,12.13
2022-10-30T00:48:17.681Z,10.13
2022-10-30T01:03:23.035Z,11.23
2022-10-30T01:18:33.872Z,10.00
2022-10-30T01:33:57.483Z,15.33
2022-10-30T01:49:11.145Z,11.30
2022-10-30T02:04:15.553Z,12.33
2022-10-30T02:19:20.386Z,12.53
2022-10-30T02:34:25.084Z,12.47
2022-10-30T02:49:29.752Z,12.17
2022-10-30T03:04:34.464Z,13.00
2022-10-30T03:19:39.137Z,13.23
2022-10-30T03:34:43.553Z,14.67
2022-10-30T03:49:48.439Z,14.13
2022-10-30T04:04:56.661Z,12.80
2022-10-30T04:20:01.103Z,28.23
2022-10-30T04:35:05.499Z,12.83
2022-10-30T04:50:09.923Z,15.67
2022-10-30T05:05:14.177Z,16.20
2022-10-30T05:20:19.128Z,14.60
2022-10-30T05:35:23.904Z,14.80
2022-10-30T05:50:29.484Z,16.17
2022-10-30T06:05:51.483Z,16.63
2022-10-30T06:20:57.416Z,18.37
2022-10-30T06:36:20.690Z,19.23
2022-10-30T06:51:25.652Z,22.50
2022-10-30T07:06:31.219Z,19.23
2022-10-30T07:21:37.035Z,18.80
2022-10-30T07:36:43.379Z,19.43
2022-10-30T07:52:00.655Z,21.60
2022-10-30T08:07:05.919Z,20.40
2022-10-30T08:22:12.686Z,20.70
2022-10-30T08:37:18.632Z,20.03
2022-10-30T08:52:22.973Z,18.17
2022-10-30T09:07:33.632Z,20.53
2022-10-30T09:23:06.684Z,24.27
2022-10-30T09:38:11.969Z,17.50
2022-10-30T09:53:40.255Z,17.60
2022-10-30T10:08:58.221Z,14.27
2022-10-30T10:24:23.461Z,11.27
2022-10-30T10:39:57.246Z,9.00
2022-10-30T10:55:05.063Z,8.23
2022-10-30T11:10:13.628Z,7.23
2022-10-30T11:25:25.305Z,6.20
2022-10-30T11:40:34.465Z,5.53
2022-10-30T11:55:40.690Z,10.03
2022-10-30T12:10:56.947Z,6.63
2022-10-30T12:26:02.714Z,6.00
2022-10-30T12:41:21.836Z,11.50
2022-10-30T12:56:32.777Z,4.80
2022-10-30T13:11:55.239Z,3.77
2022-10-30T13:27:06.320Z,4.07
2022-10-30T13:42:18.759Z,4.13
2022-10-30T13:57:41.801Z,4.00
2022-10-30T14:12:47.213Z,5.57
2022-10-30T14:27:57.552Z,9.87
2022-10-30T14:43:05.086Z,4.90
2022-10-30T14:58:18.905Z,9.53
2022-10-30T15:13:24.244Z,6.67
2022-10-30T15:28:30.650Z,6.20
2022-10-30T15:43:37.173Z,8.33
2022-10-30T15:58:42.683Z,8.40
2022-10-30T16:13:47.870Z,8.13
2022-10-30T16:28:52.553Z,8.80
2022-10-30T16:44:16.341Z,9.90
2022-10-30T16:59:25.268Z,11.33
2022-10-30T17:14:29.729Z,7.37
2022-10-30T17:29:39.955Z,8.63
2022-10-30T17:44:44.414Z,9.50
2022-10-30T17:59:49.179Z,8.80
2022-10-30T18:14:53.376Z,12.03
2022-10-30T18:29:58.365Z,9.70
2022-10-30T18:45:03.157Z,7.97
2022-10-30T19:00:07.870Z,8.77
2022-10-30T19:15:23.040Z,9.40
2022-10-30T19:30:28.909Z,7.77
2022-10-30T19:45:35.100Z,7.37
2022-10-30T20:00:41.502Z,9.83
2022-10-30T20:15:46.389Z,9.03
2022-10-30T20:30:52.051Z,6.07
2022-10-30T20:45:57.914Z,7.17
2022-10-30T21:01:02.883Z,5.87
2022-10-30T21:16:09.038Z,5.17
2022-10-30T21:31:14.704Z,5.80
2022-10-30T21:46:19.283Z,6.40
2022-10-30T22:01:25.112Z,6.07
2022-10-30T22:16:30.335Z,5.57
2022-10-30T22:31:34.685Z,4.77
2022-10-30T22:46:39.440Z,5.90
2022-10-30T23:01:44.162Z,5.00
2022-10-30T23:16:48.496Z,5.03
2022-10-30T23:31:53.082Z,5.20
2022-10-30T23:46:57.344Z,5.57
